createdAt,value
2019-05-11T00:00:13.031Z,12.60
2019-05-11T00:02:42.753Z,12.66
2019-05-11T00:05:12.537Z,12.72
2019-05-11T00:07:42.135Z,12.71
2019-05-11T00:10:11.951Z,12.71
2019-05-11T00:12:41.566Z,12.69
2019-05-11T00:15:11.417Z,12.72
2019-05-11T00:17:41.175Z,12.69
2019-05-11T00:20:11.270Z,12.70
2019-05-11T00:22:40.927Z,12.62
2019-05-11T00:25:11.003Z,12.69
2019-05-11T00:27:40.769Z,12.73
2019-05-11T00:30:10.698Z,12.71
2019-05-11T00:32:40.461Z,12.68
2019-05-11T00:35:10.333Z,12.71
2019-05-11T00:37:40.125Z,12.65
2019-05-11T00:40:14.254Z,12.71
2019-05-11T00:42:41.088Z,12.78
2019-05-11T00:45:11.029Z,12.72
2019-05-11T00:47:40.771Z,12.68
2019-05-11T00:50:10.688Z,12.55
2019-05-11T00:52:40.482Z,12.54
2019-05-11T00:55:10.268Z,12.50
2019-05-11T00:57:39.959Z,12.57
2019-05-11T01:00:10.123Z,12.53
2019-05-11T01:02:39.898Z,12.48
2019-05-11T01:05:09.808Z,12.53
2019-05-11T01:07:39.642Z,12.59
2019-05-11T01:10:23.056Z,12.54
2019-05-11T01:12:41.216Z,12.45
2019-05-11T01:15:11.166Z,12.71
2019-05-11T01:17:40.968Z,12.60
2019-05-11T01:20:11.495Z,12.52
2019-05-11T01:22:41.131Z,12.27
2019-05-11T01:25:11.023Z,12.22
2019-05-11T01:27:40.656Z,12.22
2019-05-11T01:30:10.516Z,12.27
2019-05-11T01:32:40.278Z,12.12
2019-05-11T01:35:10.680Z,12.27
2019-05-11T01:37:40.293Z,12.31
2019-05-11T01:40:10.530Z,12.61
2019-05-11T01:42:40.246Z,12.28
2019-05-11T01:45:11.086Z,12.17
2019-05-11T01:47:40.939Z,12.15
2019-05-11T01:50:10.944Z,12.15
2019-05-11T01:52:40.613Z,12.26
2019-05-11T01:55:10.460Z,12.23
2019-05-11T01:57:40.048Z,12.19
2019-05-11T02:00:10.569Z,12.25
2019-05-11T02:02:40.491Z,12.15
2019-05-11T02:05:28.674Z,12.19
2019-05-11T02:07:59.856Z,12.28
2019-05-11T02:10:29.653Z,12.26
2019-05-11T02:12:59.417Z,12.28
2019-05-11T02:15:29.181Z,12.36
2019-05-11T02:17:58.822Z,12.37
2019-05-11T02:20:28.490Z,12.39
2019-05-11T02:22:58.225Z,12.30
2019-05-11T02:25:27.952Z,12.33
2019-05-11T02:27:57.622Z,12.41
2019-05-11T02:30:27.361Z,12.40
2019-05-11T02:32:57.018Z,12.41
2019-05-11T02:35:26.838Z,12.41
2019-05-11T02:37:56.630Z,12.45
2019-05-11T02:40:27.284Z,12.44
2019-05-11T02:42:56.954Z,12.45
2019-05-11T02:45:42.398Z,12.42
2019-05-11T02:48:12.354Z,12.67
2019-05-11T02:50:41.952Z,12.55
2019-05-11T02:53:11.651Z,12.52
2019-05-11T02:55:41.254Z,12.51
2019-05-11T02:58:11.097Z,12.54
2019-05-11T03:00:43.729Z,12.46
2019-05-11T03:03:13.500Z,12.51
2019-05-11T03:05:43.263Z,12.89
2019-05-11T03:08:12.992Z,12.83
2019-05-11T03:10:42.747Z,12.73
2019-05-11T03:13:12.406Z,12.71
2019-05-11T03:15:42.140Z,12.69
2019-05-11T03:18:11.839Z,12.68
2019-05-11T03:20:41.374Z,12.66
2019-05-11T03:23:10.924Z,12.68
2019-05-11T03:25:40.590Z,12.66
2019-05-11T03:28:10.310Z,12.67
2019-05-11T03:30:39.986Z,12.62
2019-05-11T03:33:09.674Z,12.61
2019-05-11T03:35:39.650Z,12.61
2019-05-11T03:38:09.396Z,12.61
2019-05-11T03:40:39.060Z,12.64
2019-05-11T03:43:08.651Z,12.69
2019-05-11T03:45:38.508Z,12.67
2019-05-11T03:48:08.336Z,12.68
2019-05-11T03:50:38.279Z,12.64
2019-05-11T03:53:07.181Z,12.59
2019-05-11T03:55:37.080Z,12.61
2019-05-11T03:58:07.069Z,12.59
2019-05-11T04:00:36.312Z,12.58
2019-05-11T04:03:06.262Z,12.58
2019-05-11T04:05:36.612Z,12.59
2019-05-11T04:08:06.469Z,12.68
2019-05-11T04:10:36.814Z,12.64
2019-05-11T04:13:07.292Z,12.48
2019-05-11T04:15:37.854Z,12.38
2019-05-11T04:18:08.075Z,12.37
2019-05-11T04:20:38.268Z,12.39
2019-05-11T04:23:08.476Z,12.48
2019-05-11T04:25:38.590Z,12.47
2019-05-11T04:28:08.772Z,12.52
2019-05-11T04:30:39.041Z,12.53
2019-05-11T04:33:09.248Z,12.83
2019-05-11T04:35:39.544Z,12.78
2019-05-11T04:38:09.863Z,12.72
2019-05-11T04:40:40.069Z,12.67
2019-05-11T04:43:10.362Z,12.65
2019-05-11T04:45:40.600Z,12.68
2019-05-11T04:48:11.374Z,12.73
2019-05-11T04:50:41.553Z,12.72
2019-05-11T04:53:10.702Z,12.69
2019-05-11T04:55:40.881Z,12.61
2019-05-11T04:58:11.076Z,12.65
2019-05-11T05:00:41.458Z,12.69
2019-05-11T05:03:11.841Z,12.73
2019-05-11T05:05:42.274Z,12.72
2019-05-11T05:08:12.585Z,12.72
2019-05-11T05:10:42.658Z,12.61
2019-05-11T05:13:12.834Z,12.54
2019-05-11T05:15:43.149Z,12.53
2019-05-11T05:18:13.398Z,12.49
2019-05-11T05:20:43.967Z,12.47
2019-05-11T05:23:14.531Z,12.36
2019-05-11T05:25:44.823Z,12.31
2019-05-11T05:28:15.240Z,12.32
2019-05-11T05:30:44.631Z,12.26
2019-05-11T05:33:14.761Z,12.32
2019-05-11T05:35:46.344Z,12.31
2019-05-11T05:38:16.748Z,12.32
2019-05-11T05:40:46.950Z,12.46
2019-05-11T05:43:25.936Z,12.88
2019-05-11T05:45:49.097Z,13.30
2019-05-11T05:48:19.563Z,13.59
2019-05-11T05:50:50.064Z,13.90
2019-05-11T05:53:20.412Z,14.02
2019-05-11T05:55:50.728Z,14.19
2019-05-11T05:58:20.831Z,14.42
2019-05-11T06:00:50.919Z,14.60
2019-05-11T06:03:21.235Z,14.73
2019-05-11T06:05:51.544Z,14.73
2019-05-11T06:08:22.189Z,15.04
2019-05-11T06:10:52.362Z,15.00
2019-05-11T06:13:22.454Z,15.26
2019-05-11T06:15:52.743Z,15.20
2019-05-11T06:18:23.202Z,15.16
2019-05-11T06:20:53.629Z,15.22
2019-05-11T06:23:23.839Z,15.31
2019-05-11T06:25:54.078Z,15.35
2019-05-11T06:28:24.220Z,15.41
2019-05-11T06:30:55.069Z,15.40
2019-05-11T06:33:25.427Z,15.42
2019-05-11T06:35:55.810Z,15.43
2019-05-11T06:38:26.366Z,15.36
2019-05-11T06:40:56.730Z,15.38
2019-05-11T06:43:27.263Z,15.46
2019-05-11T06:45:57.593Z,15.45
2019-05-11T06:48:27.863Z,15.50
2019-05-11T06:50:58.400Z,15.58
2019-05-11T06:53:28.927Z,15.58
2019-05-11T06:55:59.275Z,15.58
2019-05-11T06:58:29.856Z,15.65
2019-05-11T07:01:00.114Z,15.71
2019-05-11T07:03:30.776Z,15.66
2019-05-11T07:06:00.068Z,15.60
2019-05-11T07:08:30.558Z,15.65
2019-05-11T07:11:00.938Z,15.69
2019-05-11T07:13:31.341Z,15.78
2019-05-11T07:16:01.782Z,15.84
2019-05-11T07:18:31.804Z,15.74
2019-05-11T07:21:02.160Z,15.68
2019-05-11T07:23:32.468Z,15.65
2019-05-11T07:26:03.076Z,15.68
2019-05-11T07:28:33.433Z,15.72
2019-05-11T07:31:03.673Z,15.63
2019-05-11T07:33:33.944Z,15.46
2019-05-11T07:36:04.312Z,15.30
2019-05-11T07:38:34.640Z,15.29
2019-05-11T07:41:05.034Z,15.25
2019-05-11T07:43:37.856Z,14.96
2019-05-11T07:46:07.765Z,15.26
2019-05-11T07:48:38.775Z,15.02
2019-05-11T07:51:09.146Z,14.94
2019-05-11T07:53:39.318Z,14.68
2019-05-11T07:56:09.922Z,14.72
2019-05-11T07:58:40.245Z,14.79
2019-05-11T08:01:10.696Z,14.47
2019-05-11T08:03:41.100Z,14.26
2019-05-11T08:06:11.365Z,14.36
2019-05-11T08:08:41.556Z,14.29
2019-05-11T08:11:11.969Z,14.03
2019-05-11T08:13:42.363Z,13.95
2019-05-11T08:16:12.616Z,13.57
2019-05-11T08:18:42.969Z,13.62
2019-05-11T08:21:13.889Z,13.49
2019-05-11T08:23:44.062Z,13.37
2019-05-11T08:26:14.049Z,13.67
2019-05-11T08:28:44.179Z,13.95
2019-05-11T08:31:14.697Z,13.83
2019-05-11T08:33:45.159Z,13.61
2019-05-11T08:36:15.540Z,13.63
2019-05-11T08:38:48.095Z,13.67
2019-05-11T08:41:18.457Z,13.79
2019-05-11T08:43:49.048Z,13.96
2019-05-11T08:46:19.357Z,13.79
2019-05-11T08:48:49.595Z,13.72
2019-05-11T08:51:20.447Z,13.57
2019-05-11T08:53:50.899Z,13.55
2019-05-11T08:56:21.103Z,13.21
2019-05-11T08:58:55.145Z,12.90
2019-05-11T09:01:24.975Z,12.54
2019-05-11T09:03:55.454Z,12.49
2019-05-11T09:06:28.233Z,12.47
2019-05-11T09:08:58.321Z,12.65
2019-05-11T09:11:28.983Z,12.69
2019-05-11T09:13:59.427Z,12.69
2019-05-11T09:16:29.813Z,12.79
2019-05-11T09:19:00.436Z,12.55
2019-05-11T09:21:30.790Z,12.30
2019-05-11T09:24:01.146Z,12.11
2019-05-11T09:26:31.375Z,12.12
2019-05-11T09:29:01.694Z,12.20
2019-05-11T09:31:32.157Z,12.17
2019-05-11T09:34:02.428Z,12.12
2019-05-11T09:36:32.986Z,12.20
2019-05-11T09:39:03.405Z,12.40
2019-05-11T09:41:33.796Z,12.55
2019-05-11T09:44:04.905Z,12.61
2019-05-11T09:46:35.455Z,12.61
2019-05-11T09:49:07.840Z,12.56
2019-05-11T09:51:38.336Z,12.63
2019-05-11T09:54:08.939Z,12.72
2019-05-11T09:56:39.281Z,12.76
2019-05-11T09:59:09.485Z,12.69
2019-05-11T10:01:39.867Z,12.58
2019-05-11T10:04:10.005Z,12.43
2019-05-11T10:06:41.134Z,12.40
2019-05-11T10:09:11.741Z,12.33
2019-05-11T10:11:42.092Z,12.58
2019-05-11T10:14:12.577Z,12.51
2019-05-11T10:16:42.806Z,12.63
2019-05-11T10:19:13.384Z,12.63
2019-05-11T10:21:43.786Z,12.50
2019-05-11T10:24:17.633Z,12.46
2019-05-11T10:26:48.668Z,12.50
2019-05-11T10:29:19.486Z,12.16
2019-05-11T10:31:49.715Z,12.11
2019-05-11T10:34:20.113Z,12.22
2019-05-11T10:36:50.221Z,12.12
2019-05-11T10:39:20.529Z,12.14
2019-05-11T10:41:50.851Z,11.97
2019-05-11T10:44:21.076Z,11.90
2019-05-11T10:46:51.714Z,11.93
2019-05-11T10:49:21.953Z,11.86
2019-05-11T10:51:52.078Z,11.91
2019-05-11T10:54:22.254Z,11.77
2019-05-11T10:56:52.328Z,11.59
2019-05-11T10:59:22.776Z,11.69
2019-05-11T11:01:53.001Z,11.52
2019-05-11T11:04:23.510Z,11.43
2019-05-11T11:06:53.721Z,11.58
2019-05-11T11:09:24.005Z,11.60
2019-05-11T11:11:54.447Z,11.46
2019-05-11T11:14:24.845Z,11.54
2019-05-11T11:16:55.528Z,11.54
2019-05-11T11:19:25.947Z,11.56
2019-05-11T11:22:07.850Z,11.45
2019-05-11T11:24:28.824Z,11.48
2019-05-11T11:26:59.083Z,11.34
2019-05-11T11:29:29.712Z,11.44
2019-05-11T11:32:00.108Z,11.38
2019-05-11T11:34:30.485Z,11.15
2019-05-11T11:37:00.744Z,11.29
2019-05-11T11:39:30.869Z,11.22
2019-05-11T11:42:01.207Z,11.28
2019-05-11T11:44:31.689Z,11.35
2019-05-11T11:47:03.091Z,11.28
2019-05-11T11:49:33.320Z,11.07
2019-05-11T11:52:03.662Z,11.07
2019-05-11T11:54:34.071Z,11.05
2019-05-11T11:57:04.362Z,10.94
2019-05-11T11:59:34.705Z,10.93
2019-05-11T12:02:05.089Z,10.90
2019-05-11T12:04:35.514Z,10.81
2019-05-11T12:07:08.296Z,10.79
2019-05-11T12:09:37.815Z,10.82
2019-05-11T12:12:08.524Z,10.76
2019-05-11T12:14:38.824Z,10.84
2019-05-11T12:17:11.109Z,10.82
2019-05-11T12:19:41.397Z,10.70
2019-05-11T12:22:11.684Z,10.70
2019-05-11T12:24:42.262Z,10.70
2019-05-11T12:27:12.451Z,10.62
2019-05-11T12:29:42.682Z,10.71
2019-05-11T12:32:15.115Z,10.74
2019-05-11T12:34:45.343Z,10.54
2019-05-11T12:37:17.515Z,10.59
2019-05-11T12:39:48.021Z,10.70
2019-05-11T12:42:18.201Z,10.62
2019-05-11T12:44:48.539Z,10.54
2019-05-11T12:47:24.694Z,10.47
2019-05-11T12:49:50.116Z,10.55
2019-05-11T12:52:20.448Z,10.52
2019-05-11T12:54:50.771Z,10.47
2019-05-11T12:57:21.247Z,10.59
2019-05-11T12:59:51.408Z,10.53
2019-05-11T13:02:21.817Z,10.59
2019-05-11T13:04:52.150Z,10.58
2019-05-11T13:07:22.310Z,10.60
2019-05-11T13:09:52.500Z,10.54
2019-05-11T13:12:22.718Z,10.64
2019-05-11T13:14:53.041Z,10.62
2019-05-11T13:17:34.913Z,10.60
2019-05-11T13:19:55.540Z,10.66
2019-05-11T13:22:25.878Z,10.83
2019-05-11T13:24:58.685Z,10.94
2019-05-11T13:27:28.403Z,10.97
2019-05-11T13:29:59.257Z,11.16
2019-05-11T13:32:29.696Z,11.25
2019-05-11T13:35:00.200Z,11.35
2019-05-11T13:37:30.416Z,11.38
2019-05-11T13:40:00.631Z,11.34
2019-05-11T13:42:30.742Z,11.36
2019-05-11T13:45:00.937Z,11.53
2019-05-11T13:47:31.403Z,11.69
2019-05-11T13:50:01.933Z,11.56
2019-05-11T13:52:32.304Z,11.82
2019-05-11T13:55:02.500Z,11.94
2019-05-11T13:57:32.905Z,12.01
2019-05-11T14:00:03.700Z,12.12
2019-05-11T14:02:34.150Z,12.21
2019-05-11T14:05:05.490Z,12.38
2019-05-11T14:07:37.946Z,12.34
2019-05-11T14:10:09.002Z,12.44
2019-05-11T14:12:39.431Z,12.44
2019-05-11T14:15:10.834Z,12.50
2019-05-11T14:17:40.981Z,12.49
2019-05-11T14:20:11.764Z,12.64
2019-05-11T14:22:41.970Z,12.74
2019-05-11T14:25:12.438Z,12.86
2019-05-11T14:27:42.638Z,12.98
2019-05-11T14:30:13.680Z,13.12
2019-05-11T14:32:44.217Z,13.39
2019-05-11T14:35:14.504Z,13.79
2019-05-11T14:37:45.045Z,14.26
2019-05-11T14:40:17.658Z,14.88
2019-05-11T14:42:48.982Z,15.53
2019-05-11T14:45:19.511Z,15.86
2019-05-11T14:47:49.907Z,15.71
2019-05-11T14:50:20.758Z,15.64
2019-05-11T14:52:50.927Z,15.40
2019-05-11T14:55:21.338Z,15.10
2019-05-11T14:57:51.633Z,15.01
2019-05-11T15:00:22.269Z,14.76
2019-05-11T15:02:52.832Z,14.54
2019-05-11T15:05:23.343Z,14.37
2019-05-11T15:07:53.795Z,14.22
2019-05-11T15:10:24.897Z,14.09
2019-05-11T15:12:55.017Z,14.10
2019-05-11T15:15:27.726Z,13.98
2019-05-11T15:17:58.199Z,13.86
2019-05-11T15:20:28.888Z,13.80
2019-05-11T15:22:59.348Z,13.67
2019-05-11T15:25:30.088Z,13.31
2019-05-11T15:28:00.276Z,13.31
2019-05-11T15:30:30.601Z,13.32
2019-05-11T15:33:01.361Z,13.12
2019-05-11T15:35:31.711Z,13.37
2019-05-11T15:38:02.304Z,13.42
2019-05-11T15:40:32.727Z,13.36
2019-05-11T15:43:02.751Z,13.52
2019-05-11T15:45:33.020Z,14.35
2019-05-11T15:48:03.322Z,15.18
2019-05-11T15:50:33.564Z,15.23
2019-05-11T15:53:04.528Z,15.54
2019-05-11T15:55:34.861Z,15.85
2019-05-11T15:58:05.445Z,16.10
2019-05-11T16:00:39.702Z,16.45
2019-05-11T16:03:08.319Z,16.46
2019-05-11T16:05:37.784Z,16.97
2019-05-11T16:08:08.557Z,17.54
2019-05-11T16:10:38.792Z,17.91
2019-05-11T16:13:09.369Z,17.67
2019-05-11T16:15:39.751Z,17.79
2019-05-11T16:18:10.172Z,18.10
2019-05-11T16:20:40.585Z,18.46
2019-05-11T16:23:11.181Z,18.81
2019-05-11T16:25:42.139Z,18.27
2019-05-11T16:28:12.441Z,18.38
2019-05-11T16:30:42.614Z,18.55
2019-05-11T16:33:12.080Z,19.21
2019-05-11T16:35:42.444Z,19.65
2019-05-11T16:38:12.682Z,20.02
2019-05-11T16:40:42.854Z,20.61
2019-05-11T16:43:13.561Z,21.14
2019-05-11T16:45:43.940Z,21.05
2019-05-11T16:48:14.219Z,20.76
2019-05-11T16:50:44.789Z,20.67
2019-05-11T16:53:15.204Z,20.59
2019-05-11T16:55:45.360Z,20.74
2019-05-11T16:58:15.487Z,20.81
2019-05-11T17:00:48.776Z,20.91
2019-05-11T17:03:18.285Z,20.99
2019-05-11T17:05:48.598Z,20.86
2019-05-11T17:08:19.078Z,20.69
2019-05-11T17:10:59.447Z,20.65
2019-05-11T17:13:30.326Z,19.80
2019-05-11T17:16:00.456Z,19.61
2019-05-11T17:18:30.889Z,19.09
2019-05-11T17:21:01.246Z,18.67
2019-05-11T17:23:31.726Z,18.21
2019-05-11T17:26:01.977Z,17.79
2019-05-11T17:28:32.645Z,17.60
2019-05-11T17:31:03.154Z,17.47
2019-05-11T17:33:33.580Z,17.65
2019-05-11T17:36:04.034Z,17.61
2019-05-11T17:38:34.419Z,17.54
2019-05-11T17:41:04.798Z,17.54
2019-05-11T17:43:35.434Z,17.40
2019-05-11T17:46:07.931Z,17.26
2019-05-11T17:48:38.768Z,16.98
2019-05-11T17:51:20.918Z,16.93
2019-05-11T17:53:41.218Z,16.91
2019-05-11T17:56:11.406Z,16.87
2019-05-11T17:58:41.687Z,16.64
2019-05-11T18:01:12.183Z,16.36
2019-05-11T18:03:42.447Z,16.27
2019-05-11T18:06:12.836Z,15.89
2019-05-11T18:08:43.104Z,15.77
2019-05-11T18:11:13.425Z,15.76
2019-05-11T18:13:43.929Z,15.50
2019-05-11T18:16:14.291Z,15.40
2019-05-11T18:18:44.994Z,15.36
2019-05-11T18:21:15.252Z,15.33
2019-05-11T18:23:47.974Z,15.29
2019-05-11T18:26:18.218Z,15.23
2019-05-11T18:28:48.631Z,15.10
2019-05-11T18:31:18.866Z,14.93
2019-05-11T18:33:49.254Z,14.81
2019-05-11T18:36:19.500Z,14.60
2019-05-11T18:38:50.123Z,14.50
2019-05-11T18:41:21.459Z,14.28
2019-05-11T18:43:51.828Z,14.14
2019-05-11T18:46:22.263Z,13.94
2019-05-11T18:48:52.825Z,13.74
2019-05-11T18:51:23.216Z,13.61
2019-05-11T18:53:53.622Z,13.37
2019-05-11T18:56:23.986Z,13.14
2019-05-11T18:58:54.220Z,12.98
2019-05-11T19:01:24.760Z,12.80
2019-05-11T19:03:54.811Z,12.75
2019-05-11T19:06:24.979Z,12.61
2019-05-11T19:08:55.310Z,12.48
2019-05-11T19:11:25.478Z,12.37
2019-05-11T19:13:58.042Z,12.27
2019-05-11T19:16:28.836Z,12.13
2019-05-11T19:18:59.258Z,12.08
2019-05-11T19:21:29.495Z,12.04
2019-05-11T19:23:59.656Z,12.00
2019-05-11T19:26:30.132Z,11.98
2019-05-11T19:29:00.813Z,11.89
2019-05-11T19:31:30.883Z,11.75
2019-05-11T19:34:00.851Z,11.66
2019-05-11T19:36:30.681Z,11.64
2019-05-11T19:39:00.800Z,11.58
2019-05-11T19:41:30.440Z,11.41
2019-05-11T19:44:00.168Z,11.31
2019-05-11T19:46:29.853Z,11.24
2019-05-11T19:48:59.507Z,11.19
2019-05-11T19:51:29.379Z,11.10
2019-05-11T19:53:59.248Z,11.00
2019-05-11T19:56:29.099Z,10.94
2019-05-11T19:58:58.780Z,10.87
2019-05-11T20:01:28.558Z,10.83
2019-05-11T20:03:58.204Z,10.82
2019-05-11T20:06:28.208Z,10.85
2019-05-11T20:08:58.226Z,10.93
2019-05-11T20:11:28.146Z,10.98
2019-05-11T20:13:58.947Z,10.99
2019-05-11T20:16:28.811Z,11.01
2019-05-11T20:18:58.590Z,11.05
2019-05-11T20:21:29.058Z,11.05
2019-05-11T20:23:58.887Z,10.97
2019-05-11T20:26:28.764Z,10.94
2019-05-11T20:28:58.797Z,10.94
2019-05-11T20:31:28.604Z,10.94
2019-05-11T20:33:58.279Z,10.87
2019-05-11T20:36:28.025Z,10.85
2019-05-11T20:38:57.727Z,10.76
2019-05-11T20:41:27.972Z,10.73
2019-05-11T20:43:58.144Z,10.64
2019-05-11T20:46:28.153Z,10.64
2019-05-11T20:48:57.991Z,10.58
2019-05-11T20:51:35.819Z,10.53
2019-05-11T20:53:59.418Z,10.47
2019-05-11T20:56:29.155Z,10.50
2019-05-11T20:58:59.830Z,10.45
2019-05-11T21:01:30.883Z,10.42
2019-05-11T21:04:00.680Z,10.35
2019-05-11T21:06:30.407Z,10.27
2019-05-11T21:09:00.079Z,10.32
2019-05-11T21:11:30.008Z,10.34
2019-05-11T21:13:59.961Z,10.40
2019-05-11T21:16:29.775Z,10.41
2019-05-11T21:18:59.470Z,10.45
2019-05-11T21:21:30.443Z,10.38
2019-05-11T21:24:00.237Z,10.36
2019-05-11T21:26:29.825Z,10.36
2019-05-11T21:28:59.464Z,10.27
2019-05-11T21:31:30.826Z,10.29
2019-05-11T21:34:00.579Z,10.31
2019-05-11T21:36:30.285Z,10.27
2019-05-11T21:38:59.999Z,10.20
2019-05-11T21:41:31.035Z,10.23
2019-05-11T21:44:00.906Z,10.26
2019-05-11T21:46:30.512Z,10.30
2019-05-11T21:49:00.223Z,10.23
2019-05-11T21:51:30.049Z,10.28
2019-05-11T21:53:59.955Z,10.27
2019-05-11T21:56:29.764Z,10.21
2019-05-11T21:58:59.485Z,10.19
2019-05-11T22:01:29.459Z,10.18
2019-05-11T22:03:59.647Z,10.17
2019-05-11T22:06:30.532Z,10.19
2019-05-11T22:09:00.498Z,10.23
2019-05-11T22:11:30.219Z,10.22
2019-05-11T22:14:01.494Z,10.21
2019-05-11T22:16:31.335Z,10.22
2019-05-11T22:19:00.947Z,10.18
2019-05-11T22:21:30.548Z,10.18
2019-05-11T22:24:00.162Z,10.13
2019-05-11T22:26:29.906Z,10.13
2019-05-11T22:28:59.541Z,10.08
2019-05-11T22:31:29.208Z,10.01
2019-05-11T22:33:58.882Z,10.01
2019-05-11T22:36:30.126Z,9.97
2019-05-11T22:39:00.061Z,9.96
2019-05-11T22:41:29.872Z,9.89
2019-05-11T22:44:00.087Z,9.87
2019-05-11T22:46:29.817Z,9.90
2019-05-11T22:48:59.463Z,9.83
2019-05-11T22:51:29.208Z,9.81
2019-05-11T22:53:59.265Z,9.74
2019-05-11T22:56:29.147Z,9.73
2019-05-11T22:58:58.912Z,9.69
2019-05-11T23:01:28.616Z,9.68
2019-05-11T23:03:58.555Z,9.63
2019-05-11T23:06:28.139Z,9.57
2019-05-11T23:08:58.735Z,9.63
2019-05-11T23:11:28.662Z,9.53
2019-05-11T23:13:58.238Z,9.45
2019-05-11T23:16:29.643Z,9.47
2019-05-11T23:18:59.454Z,9.45
2019-05-11T23:21:30.275Z,9.40
2019-05-11T23:24:00.087Z,9.36
2019-05-11T23:26:29.768Z,9.37
2019-05-11T23:28:59.453Z,9.37
2019-05-11T23:31:29.060Z,9.55
2019-05-11T23:33:58.824Z,9.41
2019-05-11T23:36:28.554Z,9.58
2019-05-11T23:38:58.678Z,9.62
2019-05-11T23:41:28.959Z,9.52
2019-05-11T23:43:58.680Z,9.47
2019-05-11T23:46:28.747Z,9.46
2019-05-11T23:48:58.550Z,9.51
2019-05-11T23:51:28.430Z,9.49
2019-05-11T23:53:58.887Z,9.45
2019-05-11T23:56:28.739Z,9.53
2019-05-11T23:58:58.543Z,9.54
